createdAt,value
2023-06-29T00:00:10.183Z,19.52
2023-06-29T00:02:37.987Z,19.51
2023-06-29T00:05:05.042Z,19.53
2023-06-29T00:07:34.273Z,19.52
2023-06-29T00:10:01.567Z,19.50
2023-06-29T00:12:29.109Z,19.48
2023-06-29T00:14:56.469Z,19.47
2023-06-29T00:17:23.721Z,19.47
2023-06-29T00:19:50.869Z,19.47
2023-06-29T00:22:20.062Z,19.46
2023-06-29T00:24:55.993Z,19.47
2023-06-29T00:27:22.979Z,19.46
2023-06-29T00:29:50.129Z,19.44
2023-06-29T00:32:16.935Z,19.44
2023-06-29T00:34:43.736Z,19.45
2023-06-29T00:37:10.632Z,19.46
2023-06-29T00:39:37.154Z,19.45
2023-06-29T00:42:04.013Z,19.44
2023-06-29T00:44:31.042Z,19.44
2023-06-29T00:46:58.082Z,19.43
2023-06-29T00:49:24.967Z,19.42
2023-06-29T00:51:53.855Z,19.42
2023-06-29T00:54:21.600Z,19.40
2023-06-29T00:56:48.480Z,19.40
2023-06-29T00:59:15.388Z,19.39
2023-06-29T01:01:42.983Z,19.41
2023-06-29T01:04:11.258Z,19.41
2023-06-29T01:06:46.068Z,19.41
2023-06-29T01:09:15.061Z,19.41
2023-06-29T01:11:43.073Z,19.41
2023-06-29T01:14:12.849Z,19.40
2023-06-29T01:16:40.092Z,19.38
2023-06-29T01:19:13.094Z,19.37
2023-06-29T01:21:51.652Z,19.37
2023-06-29T01:24:21.514Z,19.35
2023-06-29T01:26:48.778Z,19.32
2023-06-29T01:29:15.910Z,19.28
2023-06-29T01:31:42.969Z,19.23
2023-06-29T01:34:10.056Z,19.19
2023-06-29T01:36:43.494Z,19.14
2023-06-29T01:39:20.287Z,19.11
2023-06-29T01:41:48.544Z,19.07
2023-06-29T01:44:19.819Z,19.05
2023-06-29T01:46:48.046Z,19.03
2023-06-29T01:49:14.942Z,19.02
2023-06-29T01:51:41.852Z,19.00
2023-06-29T01:54:08.718Z,18.99
2023-06-29T01:56:35.967Z,18.97
2023-06-29T01:59:03.615Z,18.94
2023-06-29T02:01:31.550Z,18.90
2023-06-29T02:03:58.533Z,18.88
2023-06-29T02:06:25.350Z,18.86
2023-06-29T02:08:52.365Z,18.85
2023-06-29T02:11:21.039Z,18.83
2023-06-29T02:13:48.348Z,18.81
2023-06-29T02:16:15.571Z,18.78
2023-06-29T02:18:42.497Z,18.76
2023-06-29T02:21:09.195Z,18.72
2023-06-29T02:23:36.337Z,18.72
2023-06-29T02:26:03.180Z,18.71
2023-06-29T02:28:30.342Z,18.69
2023-06-29T02:30:57.378Z,18.67
2023-06-29T02:33:24.142Z,18.65
2023-06-29T02:35:51.390Z,18.64
2023-06-29T02:38:18.270Z,18.63
2023-06-29T02:40:45.768Z,18.62
2023-06-29T02:43:12.964Z,18.62
2023-06-29T02:45:40.092Z,18.61
2023-06-29T02:48:07.247Z,18.60
2023-06-29T02:50:34.563Z,18.60
2023-06-29T02:53:01.380Z,18.61
2023-06-29T02:55:28.097Z,18.62
2023-06-29T02:57:54.828Z,18.62
2023-06-29T03:00:21.665Z,18.61
2023-06-29T03:02:48.494Z,18.59
2023-06-29T03:05:15.290Z,18.58
2023-06-29T03:07:42.072Z,18.57
2023-06-29T03:10:09.633Z,18.56
2023-06-29T03:12:36.504Z,18.55
2023-06-29T03:15:03.795Z,18.54
2023-06-29T03:17:30.650Z,18.52
2023-06-29T03:19:57.715Z,18.51
2023-06-29T03:22:26.383Z,18.51
2023-06-29T03:24:54.072Z,18.52
2023-06-29T03:27:20.969Z,18.51
2023-06-29T03:29:52.491Z,18.50
2023-06-29T03:32:19.389Z,18.50
2023-06-29T03:34:46.162Z,18.52
2023-06-29T03:37:13.250Z,18.53
2023-06-29T03:39:39.881Z,18.54
2023-06-29T03:42:07.166Z,18.55
2023-06-29T03:44:35.252Z,18.57
2023-06-29T03:47:02.366Z,18.60
2023-06-29T03:49:28.970Z,18.62
2023-06-29T03:51:55.660Z,18.63
2023-06-29T03:54:22.568Z,18.64
2023-06-29T03:56:49.564Z,18.63
2023-06-29T03:59:16.397Z,18.64
2023-06-29T04:01:43.472Z,18.67
2023-06-29T04:04:10.382Z,18.68
2023-06-29T04:06:37.216Z,18.71
2023-06-29T04:09:04.201Z,18.73
2023-06-29T04:11:31.043Z,18.76
2023-06-29T04:13:57.979Z,18.81
2023-06-29T04:16:24.752Z,18.86
2023-06-29T04:18:51.739Z,18.90
2023-06-29T04:21:18.481Z,18.92
2023-06-29T04:23:45.329Z,18.95
2023-06-29T04:26:12.248Z,18.97
2023-06-29T04:28:39.553Z,19.02
2023-06-29T04:31:06.694Z,19.04
2023-06-29T04:33:33.618Z,19.05
2023-06-29T04:36:01.011Z,19.08
2023-06-29T04:38:28.883Z,19.12
2023-06-29T04:41:04.184Z,19.17
2023-06-29T04:43:32.250Z,19.20
2023-06-29T04:46:01.709Z,19.21
2023-06-29T04:48:39.015Z,19.24
2023-06-29T04:51:06.651Z,19.28
2023-06-29T04:53:34.634Z,19.31
2023-06-29T04:56:04.883Z,19.34
2023-06-29T04:58:31.943Z,19.35
2023-06-29T05:00:58.592Z,19.38
2023-06-29T05:03:26.467Z,19.39
2023-06-29T05:05:53.674Z,19.42
2023-06-29T05:08:20.498Z,19.46
2023-06-29T05:10:47.402Z,19.53
2023-06-29T05:13:14.181Z,19.59
2023-06-29T05:15:41.459Z,19.65
2023-06-29T05:18:10.744Z,19.72
2023-06-29T05:20:37.284Z,19.77
2023-06-29T05:23:04.164Z,19.85
2023-06-29T05:25:30.937Z,19.93
2023-06-29T05:27:58.221Z,20.02
2023-06-29T05:30:24.889Z,20.11
2023-06-29T05:32:52.872Z,20.18
2023-06-29T05:35:19.975Z,20.22
2023-06-29T05:37:48.629Z,20.26
2023-06-29T05:40:16.485Z,20.32
2023-06-29T05:42:43.350Z,20.35
2023-06-29T05:45:10.536Z,20.36
2023-06-29T05:47:37.561Z,20.33
2023-06-29T05:50:05.953Z,20.33
2023-06-29T05:52:35.062Z,20.35
2023-06-29T05:55:03.066Z,20.37
2023-06-29T05:57:29.957Z,20.40
2023-06-29T05:59:56.905Z,20.45
2023-06-29T06:02:23.640Z,20.53
2023-06-29T06:04:50.915Z,20.61
2023-06-29T06:07:37.896Z,20.67
2023-06-29T06:10:05.280Z,20.75
2023-06-29T06:12:32.404Z,20.83
2023-06-29T06:14:59.117Z,20.90
2023-06-29T06:17:26.308Z,20.99
2023-06-29T06:19:55.975Z,21.08
2023-06-29T06:22:22.751Z,21.20
2023-06-29T06:24:49.660Z,21.33
2023-06-29T06:27:16.539Z,21.48
2023-06-29T06:29:45.184Z,21.64
2023-06-29T06:32:12.723Z,21.77
2023-06-29T06:34:39.692Z,21.91
2023-06-29T06:37:07.972Z,22.01
2023-06-29T06:39:34.953Z,22.11
2023-06-29T06:42:01.745Z,22.20
2023-06-29T06:44:28.430Z,22.31
2023-06-29T06:46:55.639Z,22.41
2023-06-29T06:49:22.544Z,22.50
2023-06-29T06:51:50.321Z,22.56
2023-06-29T06:54:17.533Z,22.58
2023-06-29T06:56:44.935Z,22.65
2023-06-29T06:59:13.430Z,22.75
2023-06-29T07:01:43.085Z,22.82
2023-06-29T07:04:10.270Z,22.90
2023-06-29T07:06:37.331Z,22.96
2023-06-29T07:09:05.113Z,23.04
2023-06-29T07:11:31.770Z,23.11
2023-06-29T07:13:58.763Z,23.15
2023-06-29T07:16:26.412Z,23.20
2023-06-29T07:21:36.755Z,23.38
2023-06-29T07:24:07.811Z,23.46
2023-06-29T07:26:35.204Z,23.55
2023-06-29T07:29:02.072Z,23.59
2023-06-29T07:31:30.887Z,23.63
2023-06-29T07:33:57.937Z,23.70
2023-06-29T07:36:26.347Z,23.74
2023-06-29T07:38:53.427Z,23.75
2023-06-29T07:41:20.612Z,23.82
2023-06-29T07:43:57.541Z,23.89
2023-06-29T07:46:24.618Z,23.95
2023-06-29T07:48:52.601Z,23.96
2023-06-29T07:51:19.943Z,24.00
2023-06-29T07:53:46.803Z,24.07
2023-06-29T07:56:13.828Z,24.13
2023-06-29T07:58:40.757Z,24.24
2023-06-29T08:01:07.529Z,24.35
2023-06-29T08:03:44.072Z,24.48
2023-06-29T08:08:48.378Z,24.76
2023-06-29T08:11:16.353Z,24.85
2023-06-29T08:13:46.353Z,25.02
2023-06-29T08:16:13.813Z,25.13
2023-06-29T08:18:40.813Z,25.25
2023-06-29T08:21:07.679Z,25.39
2023-06-29T08:23:34.628Z,25.48
2023-06-29T08:26:01.262Z,25.65
2023-06-29T08:28:28.176Z,25.85
2023-06-29T08:30:55.220Z,25.96
2023-06-29T08:33:24.940Z,26.12
2023-06-29T08:35:52.834Z,26.31
2023-06-29T08:38:19.623Z,26.54
2023-06-29T08:40:50.337Z,26.67
2023-06-29T08:43:17.389Z,26.72
2023-06-29T08:45:44.589Z,26.73
2023-06-29T08:48:13.871Z,26.88
2023-06-29T08:50:46.794Z,27.04
2023-06-29T08:53:14.853Z,27.18
2023-06-29T08:55:43.199Z,27.26
2023-06-29T08:58:09.983Z,27.39
2023-06-29T09:00:38.763Z,27.41
2023-06-29T09:03:06.463Z,27.47
2023-06-29T09:05:33.991Z,27.54
2023-06-29T09:08:00.696Z,27.47
2023-06-29T09:10:27.496Z,27.35
2023-06-29T09:12:55.377Z,27.32
2023-06-29T09:15:26.429Z,27.31
2023-06-29T09:17:56.743Z,27.19
2023-06-29T09:20:26.263Z,27.02
2023-06-29T09:22:53.442Z,26.86
2023-06-29T09:25:32.878Z,26.73
2023-06-29T09:28:05.474Z,26.64
2023-06-29T09:30:40.209Z,26.53
2023-06-29T09:33:09.419Z,26.49
2023-06-29T09:35:38.450Z,26.41
2023-06-29T09:38:05.085Z,26.40
2023-06-29T09:40:32.064Z,26.30
2023-06-29T09:43:04.004Z,26.17
2023-06-29T09:45:32.282Z,26.11
2023-06-29T09:50:28.776Z,26.11
2023-06-29T09:52:56.570Z,26.17
2023-06-29T09:55:31.227Z,26.17
2023-06-29T09:57:59.166Z,26.24
2023-06-29T10:00:28.732Z,26.29
2023-06-29T10:02:56.193Z,26.40
2023-06-29T10:05:23.083Z,26.45
2023-06-29T10:07:52.158Z,26.38
2023-06-29T10:10:19.405Z,26.26
2023-06-29T10:12:50.491Z,26.20
2023-06-29T10:15:19.753Z,26.15
2023-06-29T10:18:13.113Z,26.13
2023-06-29T10:20:41.876Z,26.09
2023-06-29T10:23:10.313Z,26.10
2023-06-29T10:25:40.567Z,26.13
2023-06-29T10:28:08.506Z,26.13
2023-06-29T10:30:50.210Z,26.21
2023-06-29T10:33:23.845Z,26.31
2023-06-29T10:36:18.359Z,26.35
2023-06-29T10:38:49.270Z,26.41
2023-06-29T10:41:27.847Z,26.42
2023-06-29T10:44:01.542Z,26.40
2023-06-29T10:46:50.924Z,26.35
2023-06-29T10:49:25.878Z,26.31
2023-06-29T10:52:02.019Z,26.31
2023-06-29T10:54:28.927Z,26.30
2023-06-29T10:57:01.076Z,26.26
2023-06-29T10:59:29.317Z,26.25
2023-06-29T11:01:55.995Z,26.24
2023-06-29T11:04:23.554Z,26.23
2023-06-29T11:06:50.471Z,26.19
2023-06-29T11:09:17.813Z,26.14
2023-06-29T11:11:46.354Z,26.13
2023-06-29T11:14:13.273Z,26.12
2023-06-29T11:19:09.417Z,26.03
2023-06-29T11:21:38.154Z,25.96
2023-06-29T11:24:06.889Z,25.94
2023-06-29T11:26:33.884Z,25.93
2023-06-29T11:29:00.982Z,25.93
2023-06-29T11:31:27.954Z,25.99
2023-06-29T11:33:54.952Z,26.02
2023-06-29T11:36:29.280Z,26.04
2023-06-29T11:39:10.920Z,26.12
2023-06-29T11:41:38.578Z,26.15
2023-06-29T11:44:05.933Z,26.22
2023-06-29T11:46:36.835Z,26.27
2023-06-29T11:49:07.977Z,26.28
2023-06-29T11:51:39.374Z,26.21
2023-06-29T11:54:08.598Z,26.16
2023-06-29T11:56:36.894Z,26.15
2023-06-29T11:59:08.425Z,26.11
2023-06-29T12:01:37.419Z,26.12
2023-06-29T12:04:11.104Z,26.21
2023-06-29T12:06:38.156Z,26.31
2023-06-29T12:09:12.724Z,26.33
2023-06-29T12:11:40.861Z,26.29
2023-06-29T12:14:11.045Z,26.26
2023-06-29T12:19:14.978Z,26.19
2023-06-29T12:21:42.238Z,26.23
2023-06-29T12:24:09.415Z,26.27
2023-06-29T12:26:36.295Z,26.32
2023-06-29T12:29:03.106Z,26.33
2023-06-29T12:31:30.281Z,26.40
2023-06-29T12:33:57.894Z,26.53
2023-06-29T12:36:24.727Z,26.60
2023-06-29T12:38:52.238Z,26.66
2023-06-29T12:41:19.780Z,26.72
2023-06-29T12:43:46.472Z,26.68
2023-06-29T12:46:13.059Z,26.69
2023-06-29T12:48:39.667Z,26.66
2023-06-29T12:51:06.874Z,26.67
2023-06-29T12:53:34.078Z,26.74
2023-06-29T12:56:01.648Z,26.85
2023-06-29T12:58:28.375Z,26.81
2023-06-29T13:00:54.904Z,26.73
2023-06-29T13:03:22.370Z,26.66
2023-06-29T13:05:50.937Z,26.59
2023-06-29T13:08:17.753Z,26.56
2023-06-29T13:10:45.656Z,26.49
2023-06-29T13:13:12.508Z,26.47
2023-06-29T13:15:39.243Z,26.59
2023-06-29T13:18:06.054Z,26.72
2023-06-29T13:20:32.668Z,26.77
2023-06-29T13:23:01.345Z,26.75
2023-06-29T13:25:28.256Z,26.76
2023-06-29T13:27:54.846Z,26.82
2023-06-29T13:30:21.660Z,26.84
2023-06-29T13:32:49.108Z,26.97
2023-06-29T13:35:15.838Z,27.16
2023-06-29T13:37:42.649Z,27.31
2023-06-29T13:40:10.360Z,27.33
2023-06-29T13:42:37.018Z,27.28
2023-06-29T13:45:04.109Z,27.22
2023-06-29T13:47:31.065Z,27.20
2023-06-29T13:49:57.868Z,27.20
2023-06-29T13:52:24.416Z,27.19
2023-06-29T13:54:51.218Z,27.22
2023-06-29T13:57:17.848Z,27.24
2023-06-29T13:59:44.799Z,27.19
2023-06-29T14:02:11.641Z,27.08
2023-06-29T14:04:38.596Z,27.03
2023-06-29T14:07:05.843Z,27.04
2023-06-29T14:09:32.683Z,27.10
2023-06-29T14:12:00.708Z,27.17
2023-06-29T14:14:27.473Z,27.27
2023-06-29T14:16:53.994Z,27.39
2023-06-29T14:19:20.869Z,27.43
2023-06-29T14:21:47.712Z,27.46
2023-06-29T14:24:14.581Z,27.47
2023-06-29T14:26:41.538Z,27.55
2023-06-29T14:29:08.371Z,27.61
2023-06-29T14:31:36.432Z,27.68
2023-06-29T14:34:03.549Z,27.74
2023-06-29T14:36:30.553Z,27.79
2023-06-29T14:38:57.157Z,27.84
2023-06-29T14:41:23.892Z,27.78
2023-06-29T14:43:51.376Z,27.72
2023-06-29T14:46:18.431Z,27.70
2023-06-29T14:48:45.245Z,27.57
2023-06-29T14:51:12.065Z,27.45
2023-06-29T14:53:38.673Z,27.38
2023-06-29T14:56:07.611Z,27.22
2023-06-29T14:58:34.441Z,27.06
2023-06-29T15:01:01.237Z,26.87
2023-06-29T15:03:28.334Z,26.68
2023-06-29T15:05:56.724Z,26.51
2023-06-29T15:08:23.844Z,26.32
2023-06-29T15:10:50.525Z,26.08
2023-06-29T15:13:18.132Z,25.82
2023-06-29T15:15:45.823Z,25.58
2023-06-29T15:18:13.176Z,25.37
2023-06-29T15:20:39.825Z,25.16
2023-06-29T15:23:06.655Z,25.00
2023-06-29T15:25:34.003Z,24.85
2023-06-29T15:28:03.013Z,24.74
2023-06-29T15:30:29.750Z,24.65
2023-06-29T15:32:56.640Z,24.57
2023-06-29T15:35:23.903Z,24.52
2023-06-29T15:37:53.085Z,24.48
2023-06-29T15:40:21.230Z,24.41
2023-06-29T15:42:47.976Z,24.34
2023-06-29T15:45:15.044Z,24.28
2023-06-29T15:47:42.132Z,24.21
2023-06-29T15:50:09.187Z,24.14
2023-06-29T15:52:36.003Z,24.00
2023-06-29T15:55:03.111Z,23.82
2023-06-29T15:57:31.642Z,23.70
2023-06-29T16:00:01.628Z,23.59
2023-06-29T16:02:28.295Z,23.35
2023-06-29T16:04:55.340Z,23.04
2023-06-29T16:07:25.361Z,22.80
2023-06-29T16:09:52.287Z,22.61
2023-06-29T16:12:19.371Z,22.51
2023-06-29T16:14:46.310Z,22.48
2023-06-29T16:17:12.975Z,22.47
2023-06-29T16:19:40.160Z,22.45
2023-06-29T16:22:07.978Z,22.44
2023-06-29T16:24:35.280Z,22.44
2023-06-29T16:27:03.543Z,22.40
2023-06-29T16:29:30.991Z,22.34
2023-06-29T16:31:58.285Z,22.29
2023-06-29T16:34:25.536Z,22.26
2023-06-29T16:36:55.416Z,22.25
2023-06-29T16:39:22.794Z,22.23
2023-06-29T16:41:50.033Z,22.25
2023-06-29T16:44:16.969Z,22.29
2023-06-29T16:46:44.100Z,22.34
2023-06-29T16:49:11.169Z,22.37
2023-06-29T16:51:38.052Z,22.39
2023-06-29T16:54:05.021Z,22.42
2023-06-29T16:56:32.186Z,22.43
2023-06-29T16:58:59.151Z,22.43
2023-06-29T17:01:26.329Z,22.46
2023-06-29T17:03:53.354Z,22.46
2023-06-29T17:06:20.492Z,22.42
2023-06-29T17:08:47.885Z,22.42
2023-06-29T17:11:14.820Z,22.44
2023-06-29T17:13:41.773Z,22.45
2023-06-29T17:16:08.429Z,22.44
2023-06-29T17:18:37.776Z,22.40
2023-06-29T17:21:05.007Z,22.37
2023-06-29T17:23:31.992Z,22.34
2023-06-29T17:25:59.124Z,22.31
2023-06-29T17:28:26.130Z,22.27
2023-06-29T17:30:53.366Z,22.23
2023-06-29T17:33:21.594Z,22.23
2023-06-29T17:35:48.985Z,22.19
2023-06-29T17:38:16.235Z,22.16
2023-06-29T17:40:43.211Z,22.12
2023-06-29T17:43:10.226Z,22.08
2023-06-29T17:45:36.892Z,22.03
2023-06-29T17:48:03.778Z,21.95
2023-06-29T17:50:30.613Z,21.90
2023-06-29T17:52:57.621Z,21.86
2023-06-29T17:55:24.550Z,21.79
2023-06-29T17:57:51.847Z,21.73
2023-06-29T18:00:20.120Z,21.68
2023-06-29T18:02:47.078Z,21.63
2023-06-29T18:05:14.102Z,21.60
2023-06-29T18:07:41.099Z,21.56
2023-06-29T18:10:08.632Z,21.52
2023-06-29T18:12:37.162Z,21.49
2023-06-29T18:15:06.006Z,21.47
2023-06-29T18:17:33.759Z,21.41
2023-06-29T18:20:01.136Z,21.32
2023-06-29T18:22:28.151Z,21.23
2023-06-29T18:24:54.919Z,21.15
2023-06-29T18:27:23.281Z,21.08
2023-06-29T18:29:50.307Z,21.01
2023-06-29T18:32:18.832Z,20.94
2023-06-29T18:34:47.920Z,20.87
2023-06-29T18:37:14.908Z,20.83
2023-06-29T18:39:42.856Z,20.78
2023-06-29T18:42:11.298Z,20.75
2023-06-29T18:44:38.391Z,20.72
2023-06-29T18:47:07.467Z,20.72
2023-06-29T18:49:49.627Z,20.70
2023-06-29T18:52:17.189Z,20.65
2023-06-29T18:54:44.878Z,20.62
2023-06-29T18:57:12.063Z,20.59
2023-06-29T18:59:43.329Z,20.56
2023-06-29T19:02:10.976Z,20.53
2023-06-29T19:04:37.844Z,20.51
2023-06-29T19:07:05.183Z,20.50
2023-06-29T19:09:32.811Z,20.47
2023-06-29T19:12:03.528Z,20.44
2023-06-29T19:14:30.184Z,20.42
2023-06-29T19:16:59.786Z,20.39
2023-06-29T19:19:27.055Z,20.35
2023-06-29T19:21:54.020Z,20.30
2023-06-29T19:24:20.970Z,20.27
2023-06-29T19:26:47.980Z,20.24
2023-06-29T19:29:14.845Z,20.21
2023-06-29T19:31:43.723Z,20.18
2023-06-29T19:34:12.030Z,20.15
2023-06-29T19:36:39.608Z,20.12
2023-06-29T19:39:06.324Z,20.08
2023-06-29T19:41:33.499Z,20.05
2023-06-29T19:44:00.965Z,20.02
2023-06-29T19:46:27.895Z,19.99
2023-06-29T19:48:55.007Z,19.96
2023-06-29T19:51:21.981Z,19.94
2023-06-29T19:53:48.772Z,19.91
2023-06-29T19:56:15.584Z,19.89
2023-06-29T19:58:42.323Z,19.86
2023-06-29T20:01:09.135Z,19.83
2023-06-29T20:03:36.296Z,19.82
2023-06-29T20:06:03.892Z,19.80
2023-06-29T20:08:30.586Z,19.80
2023-06-29T20:10:57.351Z,19.79
2023-06-29T20:13:24.255Z,19.79
2023-06-29T20:15:51.161Z,19.78
2023-06-29T20:18:18.382Z,19.77
2023-06-29T20:20:45.478Z,19.75
2023-06-29T20:23:12.344Z,19.72
2023-06-29T20:25:39.411Z,19.70
2023-06-29T20:28:06.346Z,19.66
2023-06-29T20:30:33.126Z,19.63
2023-06-29T20:32:59.758Z,19.61
2023-06-29T20:35:26.226Z,19.59
2023-06-29T20:37:53.202Z,19.56
2023-06-29T20:40:20.059Z,19.53
2023-06-29T20:42:46.643Z,19.48
2023-06-29T20:45:13.539Z,19.44
2023-06-29T20:47:41.015Z,19.39
2023-06-29T20:50:08.053Z,19.33
2023-06-29T20:52:34.624Z,19.28
2023-06-29T20:55:01.222Z,19.24
2023-06-29T20:57:27.830Z,19.19
2023-06-29T20:59:54.284Z,19.14
2023-06-29T21:02:20.972Z,19.09
2023-06-29T21:04:47.598Z,19.03
2023-06-29T21:07:14.278Z,18.98
2023-06-29T21:09:41.004Z,18.93
2023-06-29T21:12:08.105Z,18.90
2023-06-29T21:14:34.849Z,18.87
2023-06-29T21:17:01.466Z,18.84
2023-06-29T21:19:28.398Z,18.80
2023-06-29T21:21:55.234Z,18.80
2023-06-29T21:24:22.070Z,18.78
2023-06-29T21:26:48.926Z,18.72
2023-06-29T21:29:34.050Z,18.68
2023-06-29T21:32:06.850Z,18.69
2023-06-29T21:34:33.743Z,18.71
2023-06-29T21:37:00.837Z,18.72
2023-06-29T21:39:27.559Z,18.73
2023-06-29T21:41:54.290Z,18.76
2023-06-29T21:44:21.308Z,18.79
2023-06-29T21:46:48.118Z,18.82
2023-06-29T21:49:15.228Z,18.85
2023-06-29T21:51:41.832Z,18.86
2023-06-29T21:54:10.618Z,18.86
2023-06-29T21:56:38.961Z,18.87
2023-06-29T21:59:05.686Z,18.87
2023-06-29T22:01:32.174Z,18.88
2023-06-29T22:03:58.977Z,18.88
2023-06-29T22:06:25.563Z,18.90
2023-06-29T22:08:52.829Z,18.91
2023-06-29T22:11:21.163Z,18.94
2023-06-29T22:13:49.253Z,18.96
2023-06-29T22:16:17.814Z,18.98
2023-06-29T22:18:44.585Z,19.00
2023-06-29T22:21:13.570Z,19.01
2023-06-29T22:23:40.660Z,19.01
2023-06-29T22:26:07.348Z,19.03
2023-06-29T22:28:34.152Z,19.04
2023-06-29T22:31:00.801Z,19.05
2023-06-29T22:33:27.532Z,19.06
2023-06-29T22:35:54.956Z,19.07
2023-06-29T22:38:21.684Z,19.05
2023-06-29T22:40:48.538Z,19.03
2023-06-29T22:43:15.165Z,18.99
2023-06-29T22:45:41.928Z,18.96
2023-06-29T22:48:08.717Z,18.95
2023-06-29T22:50:36.239Z,18.94
2023-06-29T22:53:03.080Z,18.95
2023-06-29T22:55:29.969Z,18.97
2023-06-29T22:57:56.731Z,18.97
2023-06-29T23:00:23.476Z,18.98
2023-06-29T23:02:50.585Z,18.98
2023-06-29T23:05:17.303Z,18.99
2023-06-29T23:07:47.726Z,18.99
2023-06-29T23:10:17.779Z,19.00
2023-06-29T23:12:47.688Z,19.00
2023-06-29T23:15:15.657Z,19.00
2023-06-29T23:17:43.057Z,19.01
2023-06-29T23:20:16.404Z,19.03
2023-06-29T23:22:47.574Z,19.06
2023-06-29T23:25:14.695Z,19.06
2023-06-29T23:27:44.732Z,19.04
2023-06-29T23:30:16.639Z,18.98
2023-06-29T23:32:50.749Z,18.92
2023-06-29T23:35:18.128Z,18.87
2023-06-29T23:37:45.038Z,18.81
2023-06-29T23:40:12.443Z,18.75
2023-06-29T23:42:39.270Z,18.69
2023-06-29T23:45:10.632Z,18.64
2023-06-29T23:47:39.432Z,18.59
2023-06-29T23:50:12.052Z,18.52
2023-06-29T23:52:39.740Z,18.44
2023-06-29T23:55:12.847Z,18.38
2023-06-29T23:57:41.323Z,18.35
